Los Angeles AFB, California
Current Conditions -  °F | °C
As of 10:53 AM on Saturday 20 Dec 2014 (Local Time) from KLAX Reporting Station
Broken Clouds Broken Clouds  
Wind Chill: 61°   Ceiling: 28000
Heat Index: 61°   Visibility: 10mi
Dew Point: 50°   Wind: 3mph
Humidity: 67%   Direction: 60°ENE
Pressure: 30.19"   Gusts: NA
Location:  33.9451°N, 118.383°W
Report Text: KLAX 201853Z 06003KT 10SM FEW029 SCT180 SCT220 BKN280 16/10 A3019 RMK AO2 SLP221 T01610100
Loading
Personal Weather Stations






























Interactive Weather Map New forecast layout! Learn more

10-Day Weather Forecast

Advertisements
Track Severe Weather on mobile